^^
Grace C. Lehan Memorial Weather Station Historical Data
Daily Summary for July 26, 2021 Units:  Both    English   Metric
Daily Weekly Monthly Yearly
  High: Low: Average:
Temperature: 63.7 °F /  17.6 °C 61 °F /  16.1 °C 61.6 °F /  16.4 °C
Dew Point: 60.3 °F /  15.7 °C 56 °F /  13.3 °C 57.7 °F /  14.3 °C
Humidity: 90% 82% 87%
Wind Speed: 0.1mph /  0.2km/h - 0mph /  0km/h
Wind Gust: 4mph /  6.4km/h - -
Wind- - WSW
Pressure: 30.08 in /  1018.5 hPa 30.01 in /  1016.1 hPa -
Precipitation: 0.00 in /  0 mm    
 
 
Tabular Data for July 26, 2021
Time Temperature Dew Point Pressure Wind Wind Speed Wind Gust Humidity Rainfall Rate (Hourly) solar
00:04 61.6 °F /  16.4 °C 56.1 °F /  13.4 °C 30.08in /  1018.5hPa Calm     82% 0.00in /  0mm 0 W/m2
00:09 61.6 °F /  16.4 °C 56 °F /  13.3 °C 30.08in /  1018.5hPa Calm   1mph /  1.6km/h 82% 0.00in /  0mm 0 W/m2
00:14 61.4 °F /  16.3 °C 56.1 °F /  13.4 °C 30.07in /  1018.2hPa Calm   1mph /  1.6km/h 82.7% 0.00in /  0mm 0 W/m2
00:19 61.4 °F /  16.3 °C 56.2 °F /  13.4 °C 30.07in /  1018.2hPa Calm   1mph /  1.6km/h 83% 0.00in /  0mm 0 W/m2
00:24 61.4 °F /  16.3 °C 56.2 °F /  13.4 °C 30.07in /  1018.2hPa Calm   1mph /  1.6km/h 83% 0.00in /  0mm 0 W/m2
00:29 61.3 °F /  16.3 °C 56.1 °F /  13.4 °C 30.07in /  1018.2hPa Calm   1mph /  1.6km/h 83% 0.00in /  0mm 0 W/m2
00:34 61.3 °F /  16.3 °C 56.3 °F /  13.5 °C 30.07in /  1018.2hPa Calm   1mph /  1.6km/h 83.8% 0.00in /  0mm 0 W/m2
00:39 61.2 °F /  16.2 °C 56.4 °F /  13.6 °C 30.07in /  1018.2hPa WSW 0.1mph /  0.2km/h 4mph /  6.4km/h 84% 0.00in /  0mm 0 W/m2
00:44 61.2 °F /  16.2 °C 56.3 °F /  13.5 °C 30.07in /  1018.2hPa Calm   4mph /  6.4km/h 84% 0.00in /  0mm 0 W/m2
00:49 61.2 °F /  16.2 °C 56.3 °F /  13.5 °C 30.07in /  1018.2hPa Calm   4mph /  6.4km/h 84% 0.00in /  0mm 0 W/m2
00:54 61.2 °F /  16.2 °C 56.3 °F /  13.5 °C 30.07in /  1018.2hPa Calm   4mph /  6.4km/h 84% 0.00in /  0mm 0 W/m2
00:59 61.2 °F /  16.2 °C 56.3 °F /  13.5 °C 30.07in /  1018.2hPa Calm   4mph /  6.4km/h 84% 0.00in /  0mm 0 W/m2
01:04 61.2 °F /  16.2 °C 56.3 °F /  13.5 °C 30.07in /  1018.2hPa Calm   4mph /  6.4km/h 84% 0.00in /  0mm 0 W/m2
01:09 61.2 °F /  16.2 °C 56.4 °F /  13.6 °C 30.06in /  1017.8hPa Calm     84.2% 0.00in /  0mm 0 W/m2
01:14 61.1 °F /  16.2 °C 56.6 °F /  13.7 °C 30.06in /  1017.8hPa Calm     85% 0.00in /  0mm 0 W/m2
01:19 61.1 °F /  16.2 °C 56.6 °F /  13.7 °C 30.06in /  1017.8hPa Calm     85% 0.00in /  0mm 0 W/m2
01:24 61.1 °F /  16.2 °C 56.6 °F /  13.7 °C 30.06in /  1017.8hPa Calm     85% 0.00in /  0mm 0 W/m2
01:29 61.1 °F /  16.2 °C 56.5 °F /  13.6 °C 30.06in /  1017.8hPa Calm     85% 0.00in /  0mm 0 W/m2
01:34 61.1 °F /  16.2 °C 56.5 °F /  13.6 °C 30.05in /  1017.5hPa Calm     85% 0.00in /  0mm 0 W/m2
01:39 61 °F /  16.1 °C 56.7 °F /  13.7 °C 30.05in /  1017.5hPa Calm     85.6% 0.00in /  0mm 0 W/m2
01:44 61 °F /  16.1 °C 56.8 °F /  13.8 °C 30.05in /  1017.5hPa Calm     86% 0.00in /  0mm 0 W/m2
01:49 61 °F /  16.1 °C 56.8 °F /  13.8 °C 30.05in /  1017.5hPa Calm     86% 0.00in /  0mm 0 W/m2
01:54 61 °F /  16.1 °C 56.8 °F /  13.8 °C 30.05in /  1017.5hPa Calm     86% 0.00in /  0mm 0 W/m2
01:59 61 °F /  16.1 °C 56.8 °F /  13.8 °C 30.05in /  1017.5hPa Calm     86% 0.00in /  0mm 0 W/m2
02:04 61 °F /  16.1 °C 56.8 °F /  13.8 °C 30.05in /  1017.5hPa Calm     86% 0.00in /  0mm 0 W/m2
02:09 61 °F /  16.1 °C 56.8 °F /  13.8 °C 30.05in /  1017.5hPa Calm     86% 0.00in /  0mm 0 W/m2
02:14 61 °F /  16.1 °C 56.8 °F /  13.8 °C 30.04in /  1017.2hPa Calm     86% 0.00in /  0mm 0 W/m2
02:19 61 °F /  16.1 °C 57 °F /  13.9 °C 30.05in /  1017.5hPa Calm     86.6% 0.00in /  0mm 0 W/m2
02:24 61.1 °F /  16.2 °C 57.2 °F /  14 °C 30.04in /  1017.2hPa Calm     87% 0.00in /  0mm 0 W/m2
02:29 61.1 °F /  16.2 °C 57.2 °F /  14 °C 30.04in /  1017.2hPa Calm     87% 0.00in /  0mm 0 W/m2
02:34 61.1 °F /  16.2 °C 57.3 °F /  14.1 °C 30.04in /  1017.2hPa Calm     87% 0.00in /  0mm 0 W/m2
02:39 61.2 °F /  16.2 °C 57.3 °F /  14.1 °C 30.04in /  1017.2hPa Calm     87% 0.00in /  0mm 0 W/m2
02:44 61.3 °F /  16.3 °C 57.4 °F /  14.1 °C 30.04in /  1017.2hPa Calm     87% 0.00in /  0mm 0 W/m2
02:49 61.3 °F /  16.3 °C 57.4 °F /  14.1 °C 30.04in /  1017.2hPa Calm     87% 0.00in /  0mm 0 W/m2
02:54 61.3 °F /  16.3 °C 57.4 °F /  14.1 °C 30.04in /  1017.2hPa Calm     87% 0.00in /  0mm 0 W/m2
02:59 61.4 °F /  16.3 °C 57.5 °F /  14.2 °C 30.04in /  1017.2hPa Calm     87% 0.00in /  0mm 0 W/m2
03:04 61.4 °F /  16.3 °C 57.5 °F /  14.2 °C 30.04in /  1017.2hPa Calm     87% 0.00in /  0mm 0 W/m2
03:09 61.5 °F /  16.4 °C 57.6 °F /  14.2 °C 30.03in /  1016.8hPa Calm     87% 0.00in /  0mm 0 W/m2
03:14 61.6 °F /  16.4 °C 57.7 °F /  14.3 °C 30.03in /  1016.8hPa Calm     87% 0.00in /  0mm 0 W/m2
03:19 61.7 °F /  16.5 °C 57.8 °F /  14.3 °C 30.03in /  1016.8hPa Calm     87% 0.00in /  0mm 0 W/m2
03:24 61.8 °F /  16.6 °C 57.9 °F /  14.4 °C 30.03in /  1016.8hPa Calm     87% 0.00in /  0mm 0 W/m2
03:29 61.8 °F /  16.6 °C 57.9 °F /  14.4 °C 30.03in /  1016.8hPa Calm     87% 0.00in /  0mm 0 W/m2
03:34 61.9 °F /  16.6 °C 58 °F /  14.4 °C 30.03in /  1016.8hPa Calm     87% 0.00in /  0mm 0 W/m2
03:39 62 °F /  16.7 °C 58.1 °F /  14.5 °C 30.03in /  1016.8hPa Calm     87% 0.00in /  0mm 0 W/m2
03:44 62 °F /  16.7 °C 58.1 °F /  14.5 °C 30.03in /  1016.8hPa Calm     87% 0.00in /  0mm 0 W/m2
03:49 62 °F /  16.7 °C 58.1 °F /  14.5 °C 30.03in /  1016.8hPa Calm     87% 0.00in /  0mm 0 W/m2
03:54 62 °F /  16.7 °C 58.1 °F /  14.5 °C 30.03in /  1016.8hPa Calm     87% 0.00in /  0mm 0 W/m2
03:59 62 °F /  16.7 °C 58.1 °F /  14.5 °C 30.03in /  1016.8hPa Calm   1mph /  1.6km/h 87% 0.00in /  0mm 0 W/m2
04:00 62 °F /  16.7 °C 58.1 °F /  14.5 °C 30.02in /  1016.5hPa Calm   1mph /  1.6km/h 87% 0.00in /  0mm 0 W/m2
04:09 62 °F /  16.7 °C 58.2 °F /  14.6 °C 30.02in /  1016.5hPa Calm   1mph /  1.6km/h 87.2% 0.00in /  0mm 0 W/m2
04:14 62 °F /  16.7 °C 58.2 °F /  14.6 °C 30.02in /  1016.5hPa Calm   1mph /  1.6km/h 87.4% 0.00in /  0mm 0 W/m2
04:19 62 °F /  16.7 °C 58.4 °F /  14.7 °C 30.02in /  1016.5hPa Calm   1mph /  1.6km/h 88% 0.00in /  0mm 0 W/m2
04:24 62 °F /  16.7 °C 58.4 °F /  14.7 °C 30.02in /  1016.5hPa Calm   1mph /  1.6km/h 88% 0.00in /  0mm 0 W/m2
04:29 62 °F /  16.7 °C 58.4 °F /  14.7 °C 30.02in /  1016.5hPa WSW 0.1mph /  0.2km/h 2mph /  3.2km/h 88% 0.00in /  0mm 0 W/m2
04:34 62 °F /  16.7 °C 58.4 °F /  14.7 °C 30.02in /  1016.5hPa Calm   2mph /  3.2km/h 88% 0.00in /  0mm 0 W/m2
04:39 62 °F /  16.7 °C 58.4 °F /  14.7 °C 30.02in /  1016.5hPa Calm     88% 0.00in /  0mm 0 W/m2
04:44 62 °F /  16.7 °C 58.4 °F /  14.7 °C 30.02in /  1016.5hPa Calm   1mph /  1.6km/h 88% 0.00in /  0mm 0 W/m2
04:49 62 °F /  16.7 °C 58.4 °F /  14.7 °C 30.02in /  1016.5hPa Calm   1mph /  1.6km/h 88% 0.00in /  0mm 0 W/m2
04:54 62 °F /  16.7 °C 58.4 °F /  14.7 °C 30.02in /  1016.5hPa Calm   1mph /  1.6km/h 88% 0.00in /  0mm 0 W/m2
04:59 62 °F /  16.7 °C 58.4 °F /  14.7 °C 30.02in /  1016.5hPa Calm   1mph /  1.6km/h 88% 0.00in /  0mm 0 W/m2
05:04 62 °F /  16.7 °C 58.4 °F /  14.7 °C 30.01in /  1016.1hPa Calm   1mph /  1.6km/h 88% 0.00in /  0mm 0 W/m2
05:09 61.9 °F /  16.6 °C 58.3 °F /  14.6 °C 30.02in /  1016.5hPa Calm   1mph /  1.6km/h 88% 0.00in /  0mm 0 W/m2
05:14 61.9 °F /  16.6 °C 58.4 °F /  14.7 °C 30.02in /  1016.5hPa Calm   1mph /  1.6km/h 88.3% 0.00in /  0mm 0 W/m2
05:19 61.8 °F /  16.6 °C 58.5 °F /  14.7 °C 30.02in /  1016.5hPa Calm   1mph /  1.6km/h 89% 0.00in /  0mm 0 W/m2
05:24 61.8 °F /  16.6 °C 58.5 °F /  14.7 °C 30.02in /  1016.5hPa Calm   1mph /  1.6km/h 89% 0.00in /  0mm 0 W/m2
05:29 61.7 °F /  16.5 °C 58.5 °F /  14.7 °C 30.02in /  1016.5hPa Calm   1mph /  1.6km/h 89% 0.00in /  0mm 7 W/m2
05:34 61.7 °F /  16.5 °C 58.4 °F /  14.7 °C 30.02in /  1016.5hPa Calm   1mph /  1.6km/h 89% 0.00in /  0mm 11 W/m2
05:39 61.7 °F /  16.5 °C 58.4 °F /  14.7 °C 30.02in /  1016.5hPa Calm     89% 0.00in /  0mm 12 W/m2
05:44 61.7 °F /  16.5 °C 58.4 °F /  14.7 °C 30.02in /  1016.5hPa Calm     89% 0.00in /  0mm 16 W/m2
05:49 61.7 °F /  16.5 °C 58.4 °F /  14.7 °C 30.01in /  1016.1hPa Calm     89% 0.00in /  0mm 19 W/m2
05:54 61.6 °F /  16.4 °C 58.4 °F /  14.7 °C 30.01in /  1016.1hPa Calm     89% 0.00in /  0mm 25 W/m2
05:59 61.7 °F /  16.5 °C 58.7 °F /  14.8 °C 30.01in /  1016.1hPa Calm     89.8% 0.00in /  0mm 30 W/m2
06:04 61.7 °F /  16.5 °C 58.7 °F /  14.8 °C 30.01in /  1016.1hPa Calm     90% 0.00in /  0mm 35 W/m2
06:09 61.7 °F /  16.5 °C 58.8 °F /  14.9 °C 30.01in /  1016.1hPa Calm     90% 0.00in /  0mm 37 W/m2
06:14 61.8 °F /  16.6 °C 58.8 °F /  14.9 °C 30.01in /  1016.1hPa Calm     90% 0.00in /  0mm 40 W/m2
06:19 61.9 °F /  16.6 °C 58.9 °F /  14.9 °C 30.01in /  1016.1hPa Calm     90% 0.00in /  0mm 42 W/m2
06:24 62 °F /  16.7 °C 59.1 °F /  15.1 °C 30.02in /  1016.5hPa Calm     90% 0.00in /  0mm 46 W/m2
06:29 62.1 °F /  16.7 °C 59.2 °F /  15.1 °C 30.02in /  1016.5hPa Calm     90% 0.00in /  0mm 49 W/m2
06:34 62.3 °F /  16.8 °C 59.3 °F /  15.2 °C 30.02in /  1016.5hPa Calm     90% 0.00in /  0mm 69 W/m2
06:39 62.4 °F /  16.9 °C 59.5 °F /  15.3 °C 30.02in /  1016.5hPa Calm     90% 0.00in /  0mm 70 W/m2
06:44 62.7 °F /  17.1 °C 59.7 °F /  15.4 °C 30.02in /  1016.5hPa Calm     90% 0.00in /  0mm 72 W/m2
06:49 63 °F /  17.2 °C 60 °F /  15.6 °C 30.01in /  1016.1hPa Calm     90% 0.00in /  0mm 88 W/m2
06:54 63.4 °F /  17.4 °C 60.2 °F /  15.7 °C 30.01in /  1016.1hPa Calm     89.3% 0.00in /  0mm 98 W/m2
06:58 63.7 °F /  17.6 °C 60.3 °F /  15.7 °C 30.01in /  1016.1hPa Calm     88.8% 0.00in /  0mm 98 W/m2
Hartford County Weather
Compliments of Weather Underground - 4 mb